createdAt,value
2018-11-26T00:02:12.553Z,-3.16
2018-11-26T00:04:41.846Z,-3.21
2018-11-26T00:07:10.809Z,-3.21
2018-11-26T00:09:39.918Z,-3.22
2018-11-26T00:12:08.868Z,-3.22
2018-11-26T00:14:38.216Z,-4.51
2018-11-26T00:17:07.286Z,-3.23
2018-11-26T00:19:36.045Z,-3.24
2018-11-26T00:22:05.111Z,-3.27
2018-11-26T00:24:34.286Z,-3.32
2018-11-26T00:27:03.028Z,-3.36
2018-11-26T00:29:31.962Z,-3.37
2018-11-26T00:32:00.738Z,-3.39
2018-11-26T00:34:29.682Z,-3.37
2018-11-26T00:36:58.752Z,-3.39
2018-11-26T00:39:27.427Z,-3.36
2018-11-26T00:41:56.308Z,-3.36
2018-11-26T00:44:25.386Z,-3.38
2018-11-26T00:46:54.382Z,-3.40
2018-11-26T00:49:23.714Z,-3.46
2018-11-26T00:51:52.799Z,-3.51
2018-11-26T00:54:21.803Z,-3.58
2018-11-26T00:56:50.488Z,-3.61
2018-11-26T00:59:19.366Z,-3.65
2018-11-26T01:01:48.255Z,-3.67
2018-11-26T01:04:17.339Z,-3.70
2018-11-26T01:06:46.301Z,-3.67
2018-11-26T01:09:15.382Z,-3.69
2018-11-26T01:11:44.129Z,-3.74
2018-11-26T01:14:12.873Z,-3.79
2018-11-26T01:16:41.789Z,-3.87
2018-11-26T01:19:10.463Z,-3.91
2018-11-26T01:21:39.465Z,-3.89
2018-11-26T01:24:08.384Z,-3.95
2018-11-26T01:26:37.519Z,-3.99
2018-11-26T01:29:07.123Z,-4.01
2018-11-26T01:31:36.430Z,-4.02
2018-11-26T01:34:05.726Z,-4.06
2018-11-26T01:36:34.795Z,-4.12
2018-11-26T01:39:04.000Z,-4.19
2018-11-26T01:41:33.041Z,-4.27
2018-11-26T01:44:01.891Z,-4.38
2018-11-26T01:46:30.904Z,-4.45
2018-11-26T01:49:00.094Z,-4.49
2018-11-26T01:51:29.197Z,-4.54
2018-11-26T01:53:57.908Z,-4.59
2018-11-26T01:56:26.727Z,-4.67
2018-11-26T01:58:57.580Z,-4.73
2018-11-26T02:01:26.751Z,-4.72
2018-11-26T02:03:55.737Z,-4.75
2018-11-26T02:06:24.461Z,-4.75
2018-11-26T02:08:53.542Z,-4.75
2018-11-26T02:11:22.335Z,-4.75
2018-11-26T02:13:51.633Z,-4.77
2018-11-26T02:16:20.815Z,-4.81
2018-11-26T02:18:49.860Z,-4.86
2018-11-26T02:21:19.031Z,-4.87
2018-11-26T02:23:48.447Z,-5.13
2018-11-26T02:26:17.857Z,-4.97
2018-11-26T02:28:46.726Z,-5.01
2018-11-26T02:31:15.396Z,-5.04
2018-11-26T02:33:44.331Z,-5.04
2018-11-26T02:36:13.006Z,-5.03
2018-11-26T02:38:42.070Z,-5.05
2018-11-26T02:41:11.227Z,-5.08
2018-11-26T02:43:40.019Z,-5.13
2018-11-26T02:46:09.002Z,-5.18
2018-11-26T02:48:37.693Z,-5.19
2018-11-26T02:51:06.486Z,-5.21
2018-11-26T02:53:35.552Z,-5.23
2018-11-26T02:56:04.194Z,-5.24
2018-11-26T02:58:32.929Z,-5.26
2018-11-26T03:01:01.792Z,-5.30
2018-11-26T03:03:30.477Z,-5.29
2018-11-26T03:05:59.629Z,-5.31
2018-11-26T03:08:28.565Z,-5.31
2018-11-26T03:10:57.864Z,-5.32
2018-11-26T03:13:26.722Z,-5.38
2018-11-26T03:15:55.942Z,-5.39
2018-11-26T03:18:24.842Z,-5.42
2018-11-26T03:20:53.820Z,-5.41
2018-11-26T03:23:22.672Z,-5.41
2018-11-26T03:25:51.661Z,-5.40
2018-11-26T03:28:20.665Z,-5.41
2018-11-26T03:30:49.934Z,-5.48
2018-11-26T03:33:18.786Z,-5.52
2018-11-26T03:35:47.735Z,-5.53
2018-11-26T03:38:21.785Z,-5.55
2018-11-26T03:40:50.790Z,-5.57
2018-11-26T03:43:19.811Z,-5.58
2018-11-26T03:45:48.643Z,-5.61
2018-11-26T03:48:17.664Z,-5.64
2018-11-26T03:50:46.798Z,-5.69
2018-11-26T03:53:16.092Z,-5.70
2018-11-26T03:55:44.864Z,-5.72
2018-11-26T03:58:13.640Z,-5.71
2018-11-26T04:00:42.743Z,-5.69
2018-11-26T04:03:11.750Z,-5.70
2018-11-26T04:05:40.694Z,-5.72
2018-11-26T04:08:09.966Z,-6.64
2018-11-26T04:10:38.616Z,-5.69
2018-11-26T04:13:07.433Z,-5.70
2018-11-26T04:15:36.373Z,-5.71
2018-11-26T04:18:05.428Z,-5.70
2018-11-26T04:20:34.442Z,-5.67
2018-11-26T04:23:04.030Z,-5.67
2018-11-26T04:25:32.978Z,-5.70
2018-11-26T04:28:02.174Z,-5.70
2018-11-26T04:30:31.322Z,-6.75
2018-11-26T04:33:00.513Z,-5.74
2018-11-26T04:35:29.798Z,-5.78
2018-11-26T04:37:58.959Z,-5.81
2018-11-26T04:40:27.944Z,-5.85
2018-11-26T04:42:57.105Z,-5.90
2018-11-26T04:45:26.655Z,-5.90
2018-11-26T04:47:56.023Z,-5.91
2018-11-26T04:50:25.077Z,-5.87
2018-11-26T04:52:53.821Z,-5.88
2018-11-26T04:55:23.041Z,-5.89
2018-11-26T04:57:52.489Z,-5.91
2018-11-26T05:00:21.379Z,-5.94
2018-11-26T05:02:50.498Z,-5.95
2018-11-26T05:05:20.253Z,-5.97
2018-11-26T05:07:49.172Z,-6.00
2018-11-26T05:10:19.066Z,-6.04
2018-11-26T05:12:48.243Z,-6.03
2018-11-26T05:15:17.099Z,-6.06
2018-11-26T05:17:46.527Z,-6.10
2018-11-26T05:20:16.021Z,-6.13
2018-11-26T05:22:45.844Z,-6.16
2018-11-26T05:25:14.797Z,-6.16
2018-11-26T05:27:44.380Z,-6.19
2018-11-26T05:30:14.319Z,-6.18
2018-11-26T05:32:43.788Z,-6.18
2018-11-26T05:35:13.461Z,-6.17
2018-11-26T05:37:42.564Z,-6.19
2018-11-26T05:40:12.595Z,-6.18
2018-11-26T05:42:41.744Z,-6.19
2018-11-26T05:45:16.017Z,-6.20
2018-11-26T05:47:45.942Z,-6.21
2018-11-26T05:50:15.677Z,-6.20
2018-11-26T05:52:45.116Z,-6.20
2018-11-26T05:55:16.455Z,-6.17
2018-11-26T05:57:46.379Z,-6.13
2018-11-26T06:00:34.493Z,-6.10
2018-11-26T06:03:04.163Z,-6.06
2018-11-26T06:05:33.459Z,-6.01
2018-11-26T06:08:02.214Z,-5.98
2018-11-26T06:10:31.688Z,-5.93
2018-11-26T06:13:00.501Z,-5.88
2018-11-26T06:15:29.605Z,-5.85
2018-11-26T06:17:58.756Z,-5.80
2018-11-26T06:22:01.657Z,-5.73
2018-11-26T06:24:31.126Z,-5.66
2018-11-26T06:27:00.692Z,-5.58
2018-11-26T06:29:29.770Z,-5.49
2018-11-26T06:31:58.572Z,-5.39
2018-11-26T06:34:27.851Z,-5.31
2018-11-26T06:36:56.920Z,-5.22
2018-11-26T06:39:26.197Z,-5.17
2018-11-26T06:41:55.275Z,-5.12
2018-11-26T06:44:24.295Z,-5.04
2018-11-26T06:46:53.553Z,-4.98
2018-11-26T06:49:22.736Z,-4.93
2018-11-26T06:51:52.305Z,-4.90
2018-11-26T06:54:21.556Z,-4.87
2018-11-26T06:56:50.795Z,-4.87
2018-11-26T06:59:20.249Z,-4.84
2018-11-26T07:01:49.517Z,-4.79
2018-11-26T07:04:18.923Z,-4.79
2018-11-26T07:06:47.977Z,-4.80
2018-11-26T07:09:16.806Z,-4.84
2018-11-26T07:11:46.081Z,-4.84
2018-11-26T07:14:15.357Z,-4.89
2018-11-26T07:16:44.456Z,-4.90
2018-11-26T07:19:13.432Z,-4.91
2018-11-26T07:21:42.629Z,-4.92
2018-11-26T07:24:12.084Z,-4.99
2018-11-26T07:26:41.077Z,-5.05
2018-11-26T07:29:10.266Z,-5.11
2018-11-26T07:31:39.683Z,-5.16
2018-11-26T07:34:08.927Z,-5.19
2018-11-26T07:36:37.713Z,-5.27
2018-11-26T07:39:09.027Z,-5.31
2018-11-26T07:41:37.930Z,-5.36
2018-11-26T07:44:09.266Z,-7.33
2018-11-26T07:46:38.415Z,-5.46
2018-11-26T07:49:07.687Z,-5.47
2018-11-26T07:51:36.520Z,-5.45
2018-11-26T07:54:05.787Z,-5.42
2018-11-26T07:56:35.049Z,-5.38
2018-11-26T07:59:04.214Z,-5.34
2018-11-26T08:01:33.455Z,-5.31
2018-11-26T08:04:02.616Z,-5.31
2018-11-26T08:06:31.520Z,-5.35
2018-11-26T08:09:00.532Z,-5.38
2018-11-26T08:11:29.674Z,-5.37
2018-11-26T08:13:58.640Z,-5.35
2018-11-26T08:16:27.759Z,-5.33
2018-11-26T08:18:56.634Z,-5.31
2018-11-26T08:21:25.805Z,-5.27
2018-11-26T08:23:54.992Z,-5.24
2018-11-26T08:26:23.899Z,-5.23
2018-11-26T08:28:52.663Z,-5.20
2018-11-26T08:31:21.554Z,-5.18
2018-11-26T08:33:50.588Z,-5.12
2018-11-26T08:36:24.899Z,-5.15
2018-11-26T08:38:59.113Z,-5.17
2018-11-26T08:41:33.234Z,-6.14
2018-11-26T08:44:09.588Z,-5.15
2018-11-26T08:46:41.480Z,-5.16
2018-11-26T08:49:14.868Z,-5.12
2018-11-26T08:51:43.843Z,-5.10
2018-11-26T08:54:13.154Z,-5.06
2018-11-26T08:56:42.215Z,-5.05
2018-11-26T08:59:11.453Z,-5.04
2018-11-26T09:01:42.604Z,-4.96
2018-11-26T09:04:15.852Z,-4.88
2018-11-26T09:06:44.918Z,-4.81
2018-11-26T09:09:13.960Z,-4.76
2018-11-26T09:11:43.289Z,-4.72
2018-11-26T09:14:12.154Z,-4.74
2018-11-26T09:16:41.601Z,-4.79
2018-11-26T09:19:10.938Z,-4.83
2018-11-26T09:21:40.033Z,-4.83
2018-11-26T09:24:09.055Z,-4.77
2018-11-26T09:26:38.114Z,-4.72
2018-11-26T09:29:07.215Z,-4.74
2018-11-26T09:31:36.418Z,-4.71
2018-11-26T09:34:06.260Z,-4.72
2018-11-26T09:36:35.355Z,-4.80
2018-11-26T09:39:05.006Z,-4.82
2018-11-26T09:41:34.394Z,-4.83
2018-11-26T09:44:03.529Z,-4.86
2018-11-26T09:46:32.800Z,-4.86
2018-11-26T09:49:01.501Z,-4.86
2018-11-26T09:51:30.528Z,-4.83
2018-11-26T09:53:59.646Z,-4.77
2018-11-26T09:56:28.480Z,-4.73
2018-11-26T09:58:57.456Z,-4.64
2018-11-26T10:01:26.360Z,-4.61
2018-11-26T10:03:55.948Z,-4.57
2018-11-26T10:06:24.892Z,-4.55
2018-11-26T10:08:54.300Z,-4.51
2018-11-26T10:11:23.456Z,-4.48
2018-11-26T10:13:52.915Z,-4.47
2018-11-26T10:16:21.736Z,-4.44
2018-11-26T10:18:50.800Z,-4.45
2018-11-26T10:21:20.102Z,-4.45
2018-11-26T10:23:49.635Z,-4.43
2018-11-26T10:26:18.867Z,-4.46
2018-11-26T10:28:48.339Z,-4.46
2018-11-26T10:31:17.416Z,-4.45
2018-11-26T10:33:46.294Z,-4.46
2018-11-26T10:36:15.309Z,-4.46
2018-11-26T10:38:44.266Z,-4.45
2018-11-26T10:41:12.889Z,-4.47
2018-11-26T10:43:42.127Z,-4.47
2018-11-26T10:46:10.959Z,-4.47
2018-11-26T10:48:39.932Z,-4.47
2018-11-26T10:51:09.212Z,-4.45
2018-11-26T10:53:38.073Z,-4.43
2018-11-26T10:56:07.522Z,-4.39
2018-11-26T10:58:36.596Z,-4.41
2018-11-26T11:03:12.813Z,-4.40
2018-11-26T11:05:41.807Z,-4.25
2018-11-26T11:08:10.949Z,-4.21
2018-11-26T11:10:40.194Z,-4.21
2018-11-26T11:13:09.501Z,-4.22
2018-11-26T11:15:38.450Z,-4.19
2018-11-26T11:18:08.272Z,-4.21
2018-11-26T11:20:37.308Z,-4.21
2018-11-26T11:23:06.724Z,-4.18
2018-11-26T11:25:35.692Z,-4.17
2018-11-26T11:28:04.793Z,-4.14
2018-11-26T11:30:33.906Z,-4.12
2018-11-26T11:35:30.944Z,-4.11
2018-11-26T11:37:59.955Z,-4.09
2018-11-26T11:40:31.537Z,-4.07
2018-11-26T11:43:01.207Z,-4.03
2018-11-26T11:45:31.043Z,-3.98
2018-11-26T11:48:00.174Z,-3.93
2018-11-26T11:50:29.015Z,-3.88
2018-11-26T11:52:57.959Z,-3.88
2018-11-26T11:55:27.312Z,-3.90
2018-11-26T11:57:56.608Z,-4.20
2018-11-26T12:00:37.411Z,-3.75
2018-11-26T12:03:15.282Z,-3.63
2018-11-26T12:05:43.952Z,-3.57
2018-11-26T12:08:13.170Z,-3.52
2018-11-26T12:10:42.318Z,-3.41
2018-11-26T12:13:12.486Z,-3.37
2018-11-26T12:15:43.752Z,-3.35
2018-11-26T12:18:13.062Z,-3.27
2018-11-26T12:20:42.299Z,-3.21
2018-11-26T12:23:11.490Z,-3.20
2018-11-26T12:25:40.537Z,-3.21
2018-11-26T12:28:09.399Z,-3.24
2018-11-26T12:30:39.983Z,-3.37
2018-11-26T12:33:08.967Z,-3.49
2018-11-26T12:35:38.460Z,-3.58
2018-11-26T12:38:07.350Z,-3.70
2018-11-26T12:40:36.366Z,-3.79
2018-11-26T12:43:06.421Z,-3.87
2018-11-26T12:45:35.664Z,-3.97
2018-11-26T12:48:04.815Z,-4.08
2018-11-26T12:50:34.202Z,-4.19
2018-11-26T12:53:03.290Z,-4.24
2018-11-26T12:55:32.168Z,-4.34
2018-11-26T12:58:01.567Z,-4.41
2018-11-26T13:00:30.847Z,-4.48
2018-11-26T13:03:00.945Z,-4.52
2018-11-26T13:05:29.857Z,-4.61
2018-11-26T13:07:59.157Z,-4.65
2018-11-26T13:10:27.866Z,-4.68
2018-11-26T13:12:56.666Z,-4.71
2018-11-26T13:15:26.852Z,-4.76
2018-11-26T13:17:55.584Z,-4.77
2018-11-26T13:20:29.929Z,-4.84
2018-11-26T13:22:58.826Z,-4.87
2018-11-26T13:25:30.009Z,-4.89
2018-11-26T13:28:00.829Z,-5.00
2018-11-26T13:30:31.479Z,-5.06
2018-11-26T13:33:01.550Z,-5.07
2018-11-26T13:35:30.789Z,-5.12
2018-11-26T13:38:00.149Z,-5.13
2018-11-26T13:40:29.251Z,-5.17
2018-11-26T13:42:58.151Z,-5.22
2018-11-26T13:45:37.728Z,-5.23
2018-11-26T13:48:08.475Z,-5.24
2018-11-26T13:50:38.848Z,-5.23
2018-11-26T13:53:07.751Z,-5.26
2018-11-26T13:55:36.550Z,-5.31
2018-11-26T13:58:05.605Z,-5.31
2018-11-26T14:00:34.321Z,-5.36
2018-11-26T14:03:03.137Z,-5.44
2018-11-26T14:05:32.359Z,-5.42
2018-11-26T14:08:01.103Z,-5.43
2018-11-26T14:10:29.780Z,-5.47
2018-11-26T14:13:02.884Z,-5.52
2018-11-26T14:15:31.590Z,-5.54
2018-11-26T14:18:00.571Z,-5.54
2018-11-26T14:20:29.408Z,-5.55
2018-11-26T14:22:58.227Z,-5.52
2018-11-26T14:25:27.334Z,-5.48
2018-11-26T14:27:56.187Z,-5.55
2018-11-26T14:30:27.520Z,-5.52
2018-11-26T14:32:56.795Z,-5.59
2018-11-26T14:35:25.635Z,-5.64
2018-11-26T14:38:03.851Z,-5.73
2018-11-26T14:40:36.545Z,-5.77
2018-11-26T14:43:05.910Z,-5.81
2018-11-26T14:45:35.029Z,-5.81
2018-11-26T14:48:04.010Z,-5.87
2018-11-26T14:50:33.158Z,-5.91
2018-11-26T14:53:05.194Z,-5.92
2018-11-26T14:55:35.719Z,-5.92
2018-11-26T14:58:05.153Z,-5.95
2018-11-26T15:00:34.832Z,-5.96
2018-11-26T15:03:03.580Z,-5.95
2018-11-26T15:05:32.498Z,-5.97
2018-11-26T15:08:01.621Z,-5.99
2018-11-26T15:10:30.512Z,-6.01
2018-11-26T15:12:59.595Z,-6.05
2018-11-26T15:15:28.574Z,-6.11
2018-11-26T15:17:57.515Z,-6.08
2018-11-26T15:20:28.975Z,-6.06
2018-11-26T15:22:59.982Z,-6.05
2018-11-26T15:25:29.944Z,-6.09
2018-11-26T15:28:05.055Z,-6.10
2018-11-26T15:30:33.963Z,-6.10
2018-11-26T15:33:03.056Z,-6.12
2018-11-26T15:35:32.025Z,-6.16
2018-11-26T15:38:01.322Z,-6.21
2018-11-26T15:40:30.216Z,-6.26
2018-11-26T15:42:59.005Z,-6.27
2018-11-26T15:45:29.023Z,-6.26
2018-11-26T15:47:59.224Z,-6.29
2018-11-26T15:50:28.678Z,-6.31
2018-11-26T15:52:58.060Z,-6.37
2018-11-26T15:56:37.827Z,-6.40
2018-11-26T15:59:06.830Z,-6.45
2018-11-26T16:01:36.215Z,-6.45
2018-11-26T16:04:05.020Z,-6.43
2018-11-26T16:06:33.770Z,-6.44
2018-11-26T16:09:03.670Z,-6.40
2018-11-26T16:11:33.009Z,-6.42
2018-11-26T16:14:02.515Z,-6.45
2018-11-26T16:16:31.729Z,-6.50
2018-11-26T16:19:00.569Z,-6.49
2018-11-26T16:21:29.687Z,-6.51
2018-11-26T16:23:58.548Z,-6.52
2018-11-26T16:26:27.626Z,-6.54
2018-11-26T16:28:56.813Z,-6.51
2018-11-26T16:31:25.719Z,-6.47
2018-11-26T16:33:54.783Z,-6.47
2018-11-26T16:36:23.494Z,-6.48
2018-11-26T16:38:52.344Z,-6.44
2018-11-26T16:41:21.414Z,-6.50
2018-11-26T16:43:50.649Z,-6.53
2018-11-26T16:46:20.569Z,-6.47
2018-11-26T16:48:49.918Z,-6.46
2018-11-26T16:51:19.704Z,-6.44
2018-11-26T16:53:48.676Z,-6.44
2018-11-26T16:56:17.881Z,-6.43
2018-11-26T16:58:46.903Z,-6.45
2018-11-26T17:01:15.668Z,-6.44
2018-11-26T17:03:45.054Z,-6.43
2018-11-26T17:06:14.414Z,-6.44
2018-11-26T17:08:43.736Z,-6.45
2018-11-26T17:11:13.037Z,-6.52
2018-11-26T17:13:42.338Z,-6.51
2018-11-26T17:16:11.294Z,-6.53
2018-11-26T17:18:39.935Z,-6.47
2018-11-26T17:21:08.763Z,-6.46
2018-11-26T17:23:37.687Z,-6.40
2018-11-26T17:26:07.142Z,-6.38
2018-11-26T17:28:36.040Z,-6.34
2018-11-26T17:31:05.256Z,-6.29
2018-11-26T17:33:33.994Z,-6.30
2018-11-26T17:36:02.916Z,-6.32
2018-11-26T17:38:31.708Z,-6.35
2018-11-26T17:41:00.921Z,-6.35
2018-11-26T17:43:29.807Z,-6.33
2018-11-26T17:45:58.905Z,-6.35
2018-11-26T17:48:28.439Z,-6.36
2018-11-26T17:50:57.603Z,-6.37
2018-11-26T17:53:26.444Z,-6.38
2018-11-26T17:55:56.639Z,-6.40
2018-11-26T17:58:28.417Z,-6.38
2018-11-26T18:01:11.151Z,-6.40
2018-11-26T18:03:40.002Z,-6.42
2018-11-26T18:06:09.308Z,-6.43
2018-11-26T18:08:38.600Z,-6.46
2018-11-26T18:11:08.477Z,-6.48
2018-11-26T18:13:37.402Z,-6.51
2018-11-26T18:16:06.971Z,-6.53
2018-11-26T18:18:36.105Z,-6.57
2018-11-26T18:21:05.450Z,-6.57
2018-11-26T18:23:34.892Z,-6.59
2018-11-26T18:26:04.221Z,-6.61
2018-11-26T18:28:33.622Z,-6.58
2018-11-26T18:31:02.771Z,-6.59
2018-11-26T18:33:32.226Z,-6.64
2018-11-26T18:36:01.535Z,-6.68
2018-11-26T18:38:30.491Z,-6.70
2018-11-26T18:41:00.125Z,-6.76
2018-11-26T18:43:29.785Z,-6.80
2018-11-26T18:45:59.224Z,-6.84
2018-11-26T18:48:28.633Z,-6.90
2018-11-26T18:50:58.061Z,-6.97
2018-11-26T18:53:27.134Z,-6.99
2018-11-26T18:55:56.575Z,-7.03
2018-11-26T18:58:25.656Z,-7.03
2018-11-26T19:00:56.500Z,-7.09
2018-11-26T19:03:25.468Z,-7.12
2018-11-26T19:05:55.309Z,-7.11
2018-11-26T19:08:24.512Z,-7.10
2018-11-26T19:10:56.606Z,-7.15
2018-11-26T19:13:32.339Z,-7.16
2018-11-26T19:16:08.163Z,-7.18
2018-11-26T19:18:37.329Z,-7.23
2018-11-26T19:21:07.342Z,-7.23
2018-11-26T19:23:36.183Z,-7.23
2018-11-26T19:26:05.447Z,-7.27
2018-11-26T19:28:34.596Z,-7.29
2018-11-26T19:31:03.789Z,-7.31
2018-11-26T19:33:32.795Z,-7.32
2018-11-26T19:36:01.945Z,-7.38
2018-11-26T19:38:30.668Z,-7.41
2018-11-26T19:40:59.592Z,-7.45
2018-11-26T19:43:28.503Z,-7.49
2018-11-26T19:45:57.296Z,-7.51
2018-11-26T19:48:26.145Z,-7.53
2018-11-26T19:50:55.229Z,-7.55
2018-11-26T19:53:24.110Z,-7.60
2018-11-26T19:55:53.559Z,-7.63
2018-11-26T19:58:22.949Z,-7.67
2018-11-26T20:00:52.101Z,-7.68
2018-11-26T20:03:25.027Z,-7.70
2018-11-26T20:05:57.845Z,-7.70
2018-11-26T20:08:27.318Z,-7.71
2018-11-26T20:10:56.857Z,-7.72
2018-11-26T20:13:26.588Z,-7.75
2018-11-26T20:15:57.254Z,-7.80
2018-11-26T20:18:28.634Z,-7.86
2018-11-26T20:20:57.056Z,-7.90
2018-11-26T20:23:26.054Z,-7.92
2018-11-26T20:25:54.941Z,-7.94
2018-11-26T20:28:23.892Z,-7.98
2018-11-26T20:30:53.354Z,-8.00
2018-11-26T20:33:23.013Z,-8.01
2018-11-26T20:35:52.710Z,-8.03
2018-11-26T20:38:21.860Z,-8.06
2018-11-26T20:40:51.073Z,-8.11
2018-11-26T20:43:20.633Z,-8.12
2018-11-26T20:45:50.645Z,-8.13
2018-11-26T20:48:20.126Z,-8.15
2018-11-26T20:50:51.176Z,-8.15
2018-11-26T20:53:23.628Z,-8.15
2018-11-26T20:55:53.134Z,-8.15
2018-11-26T20:58:22.568Z,-8.15
2018-11-26T21:00:51.762Z,-8.14
2018-11-26T21:03:21.177Z,-8.16
2018-11-26T21:05:50.537Z,-8.18
2018-11-26T21:08:19.834Z,-8.21
2018-11-26T21:10:48.864Z,-8.20
2018-11-26T21:13:17.808Z,-8.21
2018-11-26T21:15:46.870Z,-8.23
2018-11-26T21:18:15.608Z,-8.25
2018-11-26T21:20:45.908Z,-8.21
2018-11-26T21:23:17.111Z,-8.17
2018-11-26T21:25:46.075Z,-8.16
2018-11-26T21:28:14.928Z,-8.12
2018-11-26T21:30:44.348Z,-8.10
2018-11-26T21:33:13.375Z,-8.03
2018-11-26T21:35:42.262Z,-7.97
2018-11-26T21:38:12.017Z,-7.96
2018-11-26T21:40:41.791Z,-7.97
2018-11-26T21:43:11.886Z,-7.97
2018-11-26T21:45:43.977Z,-7.98
2018-11-26T21:48:12.775Z,-8.01
2018-11-26T21:50:41.593Z,-8.05
2018-11-26T21:53:10.519Z,-8.09
2018-11-26T21:55:39.392Z,-8.11
2018-11-26T21:58:08.166Z,-8.10
2018-11-26T22:00:38.803Z,-8.13
2018-11-26T22:03:09.975Z,-8.12
2018-11-26T22:05:39.745Z,-8.12
2018-11-26T22:08:09.567Z,-8.12
2018-11-26T22:10:39.787Z,-8.13
2018-11-26T22:13:11.547Z,-8.11
2018-11-26T22:15:40.617Z,-8.14
2018-11-26T22:30:03.166Z,-7.51
2018-11-26T22:32:32.354Z,-7.57
2018-11-26T22:35:01.545Z,-7.63
2018-11-26T22:37:30.356Z,-7.67
2018-11-26T22:39:59.511Z,-7.67
2018-11-26T22:42:28.452Z,-7.69
2018-11-26T22:44:57.777Z,-7.68
2018-11-26T22:47:26.879Z,-7.68
2018-11-26T22:49:55.845Z,-7.71
2018-11-26T22:52:24.984Z,-7.72
2018-11-26T22:54:54.569Z,-7.74
2018-11-26T22:57:24.186Z,-7.73
2018-11-26T22:59:53.130Z,-7.71
2018-11-26T23:02:22.072Z,-7.72
2018-11-26T23:04:50.945Z,-7.77
2018-11-26T23:07:19.905Z,-7.83
2018-11-26T23:09:48.723Z,-7.84
2018-11-26T23:12:17.723Z,-7.92
2018-11-26T23:14:46.924Z,-7.97
2018-11-26T23:17:16.710Z,-8.04
2018-11-26T23:28:44.351Z,-8.19
2018-11-26T23:31:13.356Z,-8.27
2018-11-26T23:33:42.661Z,-8.31
2018-11-26T23:36:12.516Z,-8.37
2018-11-26T23:38:41.542Z,-8.38
2018-11-26T23:41:10.374Z,-8.38
2018-11-26T23:43:39.143Z,-8.40
2018-11-26T23:46:08.756Z,-8.43
2018-11-26T23:48:38.146Z,-8.43
2018-11-26T23:51:08.499Z,-8.46
2018-11-26T23:53:37.669Z,-8.46
2018-11-26T23:56:07.386Z,-8.42
2018-11-26T23:58:36.705Z,-8.38
